North Kingstown, Rhode Island
Current Conditions -  °F | °C
As of 10:20 PM on Monday 26 Jan 2015 (Local Time) from KUUU Reporting Station
Light Snow Light Snow  
Wind Chill: 14°   Ceiling: 900
Heat Index: 28°   Visibility: 0.75mi
Dew Point: 26°   Wind: 24mph
Humidity: 92%   Direction: 20°NNE
Pressure: 29.7"   Gusts: 35mph
Location:  41.6°N, 71.42°W
Report Text: KUUU 270320Z AUTO 02021G30KT 3/4SM -SN BR VV009 M02/M03 A2970 RMK AO2 PK WND 03033/0302 P0000 T10221033
Loading
Personal Weather Stations






























Interactive Weather Map New forecast layout! Learn more

10-Day Weather Forecast

Advertisements
Track Severe Weather on mobile